Terminal Aerodrome Forecast
Issued by NWS Twin Cities, MN

Home | Current Version | Previous Version | Text Only | Print | Product List | Glossary Off
Versions: 1 2 3 4 5 6 7 8 9 10 11 12 13 14 15 16 17 18 19 20 21 22 23 24

000
FTUS43 KMPX 231700
TAFMSP
TAF
KMSP 231739Z 2318/2424 36012KT 6SM -SHSN BR OVC012
      TEMPO 2318/2320 2SM -SN BR OVC009
     FM232000 34011KT 5SM -SHSN BR OVC010
     FM240600 33009KT 6SM BR OVC008
     FM241800 32008KT P6SM OVC011=

USA.gov is the U.S. government's official web portal to all federal, state and local government web resources and services.